Flight Track Log - Related Links

Times and Time Zones

All times are in EDT time to prevent confusion due to time zone crossing. See the N201SU flight status page for this flight to view local times or setup timezone preferences in your user account.


Time Position Orientation Groundspeed Altitude Reporting Facility
EDT Latitude Longitude Course Direction KTS MPH feet Rate Location/Type
Mon 01:12:28 PM 39.9333 -75.8500 143° Southeast 237 273 6,500  Level Philadelphia TRACON
Mon 01:13:34 PM 39.9167 -75.7333 101° East 273 314 9,400 1,619 Climbing Philadelphia TRACON
Mon 01:14:34 PM 39.9000 -75.6333 102° East 325 374 9,900 316 Climbing Philadelphia TRACON
Mon 01:15:28 PM 39.9000 -75.5333 90° East 320 368 10,000 53 Climbing Philadelphia TRACON
Mon 01:16:28 PM 39.8833 -75.4000 99° East 342 394 10,000 -53 Level Philadelphia TRACON
Mon 01:17:22 PM 39.8667 -75.3000 102° East 341 392 9,900  Descending Philadelphia TRACON
Mon 01:18:16 PM 39.8500 -75.1833 101° East 342 394 10,000 53 Climbing Philadelphia TRACON
Mon 01:19:16 PM 39.8333 -75.0667 101° East 338 389 10,000 497 Level Philadelphia TRACON
Mon 01:21:05 PM 39.8092 -74.8622 99° East 355 409 11,400 918 Climbing New York Center
Mon 01:22:06 PM 39.8006 -74.7483 96° East 355 409 12,600 2,186 Climbing New York Center
Mon 01:23:03 PM 39.8536 -74.6592 52° Northeast 302 348 15,700 2,622 Climbing New York Center
Mon 01:24:05 PM 39.9267 -74.5875 37° Northeast 301 346 17,800 2,098 Climbing New York Center
Mon 01:25:06 PM 40.0042 -74.5158 35° Northeast 306 352 20,000 2,034 Climbing New York Center
Mon 01:26:03 PM 40.0794 -74.4358 39° Northeast 331 381 21,800 1,538 Climbing New York Center
Mon 01:27:03 PM 40.1592 -74.3558 37° Northeast 344 396 23,000 595 Climbing New York Center
Mon 01:28:04 PM 40.2433 -74.2597 41° Northeast 369 425 23,000  Level New York Center
Mon 01:29:05 PM 40.3094 -74.1378 55° Northeast 391 450 23,000  Level New York Center
Mon 01:30:05 PM 40.3775 -74.0186 53° Northeast 402 463 23,000  Level New York Center
Mon 01:31:03 PM 40.4472 -73.9044 51° Northeast 402 463 23,000  Level New York Center
Mon 01:32:05 PM 40.5169 -73.7903 51° Northeast 402 463 23,000  Level New York Center
Mon 01:33:42 PM 40.6211 -73.5939 69° East 424 488 23,000  Level Boston Center
Mon 01:34:41 PM 40.6908 -73.4803 51° Northeast 413 475 23,000  Level Boston Center
Mon 01:35:42 PM 40.7564 -73.3633 53° Northeast 399 459 23,000  Level Boston Center
Mon 01:36:42 PM 40.8386 -73.2522 46° Northeast 392 451 23,000  Level Boston Center
Mon 01:37:42 PM 40.9164 -73.1625 41° Northeast 371 427 23,000 -450 Level Boston Center
Mon 01:38:42 PM 40.9939 -73.0753 40° Northeast 361 415 22,100 -1,800 Descending Boston Center
Mon 01:39:42 PM 41.0653 -72.9853 44° Northeast 361 415 19,400 -2,450 Descending Boston Center
Mon 01:40:42 PM 41.1344 -72.9058 41° Northeast 356 410 17,200 -2,200 Descending Boston Center
Mon 01:41:42 PM 41.2056 -72.8181 43° Northeast 356 410 15,000 -1,100 Descending Boston Center
Mon 01:42:42 PM 41.2767 -72.7383 40° Northeast 344 396 15,000  Level Boston Center
Mon 01:43:42 PM 41.3539 -72.6697 34° Northeast 339 390 15,000  Level Boston Center
Mon 01:44:42 PM 41.4458 -72.6311 17° North 326 375 15,000  Level Boston Center
Mon 01:45:42 PM 41.5417 -72.5953 16° North 332 382 15,000 -250 Level Boston Center
Mon 01:46:42 PM 41.6292 -72.5539 19° North 327 376 14,500 -1,150 Descending Boston Center
Mon 01:47:42 PM 41.7086 -72.4819 34° Northeast 327 376 12,700 -1,700 Descending Boston Center
Mon 01:48:42 PM 41.7753 -72.4039 41° Northeast 327 376 11,100 -1,186 Descending Boston Center
Mon 01:49:08 PM 41.8003 -72.3761 40° Northeast 306 352 11,000 -100 Descending Boston Center
Mon 01:49:42 PM 41.8378 -72.3342 40° Northeast 309 356 11,000  Level Boston Center
Mon 01:50:21 PM 41.8792 -72.2867 41° Northeast 297 342 11,000  Level Boston Center
Mon 01:50:42 PM 41.9022 -72.2617 39° Northeast 304 350 11,000  Level Boston Center
Mon 01:51:21 PM 41.9481 -72.2083 41° Northeast 319 367 11,000 -300 Level Boston Center
Mon 01:51:42 PM 41.9708 -72.1831 40° Northeast 304 350 10,700 -1,180 Descending Boston Center
Mon 01:52:22 PM 42.0144 -72.1300 42° Northeast 306 352 9,800 -1,400 Descending Boston Center
Mon 01:52:42 PM 42.0331 -72.1103 38° Northeast 304 350 9,300 -1,855 Descending Boston Center
Mon 01:53:17 PM 42.0706 -72.0708 38° Northeast 279 321 8,100 -1,900 Descending Boston Center
Mon 01:53:42 PM 42.0933 -72.0428 42° Northeast 291 335 7,400 -2,000 Descending Boston Center
Mon 01:54:23 PM 42.1306 -71.9978 42° Northeast 275 316 5,900 -1,900 Descending Boston Center
Mon 01:54:42 PM 42.1536 -71.9808 29° Northeast 280 322 5,500 -982 Descending Boston Center
Mon 01:55:18 PM 42.1847 -71.9414 43° Northeast 266 306 5,000 -508 Descending Boston Center
Mon 01:55:41 PM 42.1972 -71.9300 34° Northeast 275 316 5,000  Level Boston Center
Mon 01:56:42 PM 42.2656 -71.8508 41° Northeast 270 311 5,000  Level Boston Center
Mon 01:57:42 PM 42.3131 -71.7944 41° Northeast 258 297 5,000 50 Level Boston Center
Mon 01:58:42 PM 42.3731 -71.7206 42° Northeast 258 297 5,100  Climbing Boston Center
Mon 01:59:42 PM 42.4206 -71.6525 47° Northeast 263 303 5,000 -509 Descending Boston Center
Mon 02:00:28 PM 42.4667 -71.5833 48° Northeast 269 310 4,200 -923 Descending KA90
Mon 02:01:26 PM 42.5000 -71.5000 61° Northeast 268 308 3,400 -661 Descending KA90
Mon 02:02:26 PM 42.5167 -71.4167 75° East 241 277 2,900 -250 Descending KA90
Mon 02:03:26 PM 42.5333 -71.3167 77° East 244 281 2,900  Level KA90
Mon 02:04:22 PM 42.5500 -71.2500 71° East 230 265 2,900 -492 Level KA90
Mon 02:05:28 PM 42.5333 -71.1667 105° East 205 236 1,900 -476 Descending KA90
Mon 02:06:28 PM 42.5000 -71.1333 144° Southeast 180 207 1,900 -53 Level KA90
Mon 02:07:22 PM 42.4667 -71.1667 216° Southwest 146 168 1,800 -504 Descending KA90
Mon 02:08:27 PM 42.4667 -71.2167 270° West 123 142 900 -667 Descending KA90
Mon 02:09:28 PM 42.4667 -71.2500 270° West 132 152 400 -492 Descending KA90

Login

Don't have an account? Register now (free) for customized features, flight alerts, and more!